Terminal Aerodrome Forecast
Issued by NWS

Home | Current Version | Previous Version | Text Only | Print | Product List | Glossary On
Versions: 1 2 3 4 5 6 7 8 9 10 11 12 13 14 15 16
000
FTAK31 PAFA 171139
TAFABT
TAF
PABT 171139Z 1712/1812 16006KT 4SM -SN BKN045
     FM171800 VRB03KT 3SM -SN BR BKN025
     FM180900 VRB03KT 2SM BR SCT025=

USA.gov is the U.S. government's official web portal to all federal, state and local government web resources and services.